sensor_id;sensor_type;location;lat;lon;timestamp;pressure;altitude;pressure_sealevel;temperature;humidity
75298;BME280;63896;45.990;18.688;2023-04-03T00:02:24;100630.91;;;5.41;68.04
75298;BME280;63896;45.990;18.688;2023-04-03T00:05:27;100629.94;;;5.42;68.27
75298;BME280;63896;45.990;18.688;2023-04-03T00:08:30;100631.59;;;5.43;68.52
75298;BME280;63896;45.990;18.688;2023-04-03T00:11:33;100636.31;;;5.48;67.75
75298;BME280;63896;45.990;18.688;2023-04-03T00:14:36;100632.88;;;5.47;67.62
75298;BME280;63896;45.990;18.688;2023-04-03T00:17:39;100655.00;;;5.53;67.86
75298;BME280;63896;45.990;18.688;2023-04-03T00:20:42;100652.09;;;5.48;68.06
75298;BME280;63896;45.990;18.688;2023-04-03T00:23:45;100646.59;;;5.57;68.13
75298;BME280;63896;45.990;18.688;2023-04-03T00:26:48;100639.16;;;5.61;67.50
75298;BME280;63896;45.990;18.688;2023-04-03T00:29:51;100644.06;;;5.64;67.80
75298;BME280;63896;45.990;18.688;2023-04-03T00:32:54;100642.09;;;5.66;67.58
75298;BME280;63896;45.990;18.688;2023-04-03T00:35:57;100647.38;;;5.66;68.20
75298;BME280;63896;45.990;18.688;2023-04-03T00:39:00;100639.94;;;5.69;67.82
75298;BME280;63896;45.990;18.688;2023-04-03T00:42:03;100648.47;;;5.71;67.94
75298;BME280;63896;45.990;18.688;2023-04-03T00:48:31;100647.25;;;5.82;67.86
75298;BME280;63896;45.990;18.688;2023-04-03T00:51:35;100647.88;;;5.84;66.89
75298;BME280;63896;45.990;18.688;2023-04-03T00:54:38;100651.19;;;5.86;67.79
75298;BME280;63896;45.990;18.688;2023-04-03T00:57:44;100649.22;;;5.80;67.65
75298;BME280;63896;45.990;18.688;2023-04-03T01:00:54;100656.47;;;5.86;67.89
75298;BME280;63896;45.990;18.688;2023-04-03T01:04:02;100656.72;;;5.91;67.51
75298;BME280;63896;45.990;18.688;2023-04-03T01:07:11;100650.00;;;5.89;67.51
75298;BME280;63896;45.990;18.688;2023-04-03T01:10:17;100647.84;;;5.92;67.30
75298;BME280;63896;45.990;18.688;2023-04-03T01:13:26;100658.56;;;5.91;67.92
75298;BME280;63896;45.990;18.688;2023-04-03T01:16:30;100651.69;;;5.82;68.78
75298;BME280;63896;45.990;18.688;2023-04-03T01:19:38;100659.59;;;5.82;68.87
75298;BME280;63896;45.990;18.688;2023-04-03T01:26:09;100656.84;;;5.75;70.68
75298;BME280;63896;45.990;18.688;2023-04-03T01:29:14;100662.63;;;5.70;71.10
75298;BME280;63896;45.990;18.688;2023-04-03T01:32:17;100662.44;;;5.72;70.82
75298;BME280;63896;45.990;18.688;2023-04-03T01:35:20;100664.97;;;5.65;72.07
75298;BME280;63896;45.990;18.688;2023-04-03T01:38:24;100662.13;;;5.75;72.05
75298;BME280;63896;45.990;18.688;2023-04-03T01:41:28;100660.53;;;5.66;72.73
75298;BME280;63896;45.990;18.688;2023-04-03T01:44:39;100654.50;;;5.57;73.67
75298;BME280;63896;45.990;18.688;2023-04-03T01:47:41;100655.22;;;5.51;74.48
75298;BME280;63896;45.990;18.688;2023-04-03T01:50:44;100665.06;;;5.49;74.69
75298;BME280;63896;45.990;18.688;2023-04-03T01:53:47;100656.41;;;5.41;75.54
75298;BME280;63896;45.990;18.688;2023-04-03T01:56:50;100653.16;;;5.39;75.53
75298;BME280;63896;45.990;18.688;2023-04-03T01:59:54;100658.09;;;5.34;76.70
75298;BME280;63896;45.990;18.688;2023-04-03T02:02:57;100663.66;;;5.39;75.78
75298;BME280;63896;45.990;18.688;2023-04-03T02:06:01;100653.50;;;5.36;75.80
75298;BME280;63896;45.990;18.688;2023-04-03T02:09:04;100649.34;;;5.41;75.16
75298;BME280;63896;45.990;18.688;2023-04-03T02:12:07;100650.00;;;5.43;75.11
75298;BME280;63896;45.990;18.688;2023-04-03T02:15:10;100649.63;;;5.46;74.24
75298;BME280;63896;45.990;18.688;2023-04-03T02:18:13;100656.59;;;5.39;74.47
75298;BME280;63896;45.990;18.688;2023-04-03T02:21:17;100661.50;;;5.42;74.94
75298;BME280;63896;45.990;18.688;2023-04-03T02:24:20;100657.88;;;5.43;73.09
75298;BME280;63896;45.990;18.688;2023-04-03T02:27:23;100663.47;;;5.48;72.92
75298;BME280;63896;45.990;18.688;2023-04-03T02:30:26;100654.59;;;5.41;72.39
75298;BME280;63896;45.990;18.688;2023-04-03T02:33:29;100661.03;;;5.39;73.13
75298;BME280;63896;45.990;18.688;2023-04-03T02:36:33;100658.00;;;5.50;72.43
75298;BME280;63896;45.990;18.688;2023-04-03T02:39:39;100672.28;;;5.55;72.44
75298;BME280;63896;45.990;18.688;2023-04-03T02:42:42;100670.47;;;5.56;72.12
75298;BME280;63896;45.990;18.688;2023-04-03T02:45:45;100664.72;;;5.52;71.92
75298;BME280;63896;45.990;18.688;2023-04-03T02:48:48;100653.66;;;5.57;71.77
75298;BME280;63896;45.990;18.688;2023-04-03T02:51:51;100657.94;;;5.58;71.68
75298;BME280;63896;45.990;18.688;2023-04-03T02:54:54;100655.78;;;5.61;71.73
75298;BME280;63896;45.990;18.688;2023-04-03T02:57:57;100659.75;;;5.57;71.48
75298;BME280;63896;45.990;18.688;2023-04-03T03:01:01;100649.22;;;5.57;71.46
75298;BME280;63896;45.990;18.688;2023-04-03T03:04:03;100656.78;;;5.60;71.18
75298;BME280;63896;45.990;18.688;2023-04-03T03:07:06;100660.47;;;5.51;70.88
75298;BME280;63896;45.990;18.688;2023-04-03T03:10:09;100656.81;;;5.52;71.46
75298;BME280;63896;45.990;18.688;2023-04-03T03:13:12;100660.41;;;5.59;71.56
75298;BME280;63896;45.990;18.688;2023-04-03T03:16:15;100666.00;;;5.56;71.21
75298;BME280;63896;45.990;18.688;2023-04-03T03:19:18;100664.81;;;5.44;71.28
75298;BME280;63896;45.990;18.688;2023-04-03T03:22:21;100670.38;;;5.41;71.79
75298;BME280;63896;45.990;18.688;2023-04-03T03:25:24;100671.22;;;5.42;71.89
75298;BME280;63896;45.990;18.688;2023-04-03T03:28:27;100680.78;;;5.35;71.95
75298;BME280;63896;45.990;18.688;2023-04-03T03:31:30;100685.34;;;5.41;71.82
75298;BME280;63896;45.990;18.688;2023-04-03T03:34:33;100695.25;;;5.39;72.52
75298;BME280;63896;45.990;18.688;2023-04-03T03:37:36;100687.84;;;5.34;72.92
75298;BME280;63896;45.990;18.688;2023-04-03T03:40:39;100688.09;;;5.24;73.59
75298;BME280;63896;45.990;18.688;2023-04-03T03:43:43;100690.19;;;5.29;74.32
75298;BME280;63896;45.990;18.688;2023-04-03T03:46:48;100697.31;;;5.20;75.20
75298;BME280;63896;45.990;18.688;2023-04-03T03:49:51;100701.91;;;5.18;75.81
75298;BME280;63896;45.990;18.688;2023-04-03T03:52:54;100709.84;;;5.10;76.78
75298;BME280;63896;45.990;18.688;2023-04-03T03:55:57;100700.13;;;5.11;76.76
75298;BME280;63896;45.990;18.688;2023-04-03T03:59:03;100703.28;;;5.06;77.61
75298;BME280;63896;45.990;18.688;2023-04-03T04:02:06;100700.00;;;5.04;77.19
75298;BME280;63896;45.990;18.688;2023-04-03T04:05:10;100705.47;;;4.87;77.50
75298;BME280;63896;45.990;18.688;2023-04-03T04:08:13;100704.03;;;4.84;77.82
75298;BME280;63896;45.990;18.688;2023-04-03T04:11:16;100706.66;;;4.76;78.20
75298;BME280;63896;45.990;18.688;2023-04-03T04:14:21;100700.75;;;4.82;78.39
75298;BME280;63896;45.990;18.688;2023-04-03T04:17:24;100704.84;;;4.85;79.03
75298;BME280;63896;45.990;18.688;2023-04-03T04:20:27;100703.38;;;4.82;79.45
75298;BME280;63896;45.990;18.688;2023-04-03T04:23:30;100713.88;;;4.90;78.27
75298;BME280;63896;45.990;18.688;2023-04-03T04:26:34;100714.38;;;4.86;78.63
75298;BME280;63896;45.990;18.688;2023-04-03T04:29:37;100716.69;;;4.80;78.39
75298;BME280;63896;45.990;18.688;2023-04-03T04:32:43;100719.63;;;4.86;78.83
75298;BME280;63896;45.990;18.688;2023-04-03T04:35:47;100726.00;;;4.91;78.72
75298;BME280;63896;45.990;18.688;2023-04-03T04:38:53;100739.00;;;4.85;77.57
75298;BME280;63896;45.990;18.688;2023-04-03T04:41:58;100740.66;;;4.86;77.90
75298;BME280;63896;45.990;18.688;2023-04-03T04:45:05;100746.91;;;4.76;78.00
75298;BME280;63896;45.990;18.688;2023-04-03T04:48:08;100755.94;;;4.82;78.14
75298;BME280;63896;45.990;18.688;2023-04-03T04:51:12;100755.28;;;4.80;78.26
75298;BME280;63896;45.990;18.688;2023-04-03T04:54:16;100752.31;;;4.83;78.62
75298;BME280;63896;45.990;18.688;2023-04-03T04:57:21;100753.63;;;4.87;78.25
75298;BME280;63896;45.990;18.688;2023-04-03T05:00:25;100757.75;;;4.82;78.47
75298;BME280;63896;45.990;18.688;2023-04-03T05:03:29;100758.06;;;4.87;77.83
75298;BME280;63896;45.990;18.688;2023-04-03T05:06:33;100758.56;;;4.90;77.66
75298;BME280;63896;45.990;18.688;2023-04-03T05:09:40;100768.88;;;5.00;77.31
75298;BME280;63896;45.990;18.688;2023-04-03T05:12:46;100752.47;;;4.98;76.41
75298;BME280;63896;45.990;18.688;2023-04-03T05:15:49;100750.13;;;5.03;77.16
75298;BME280;63896;45.990;18.688;2023-04-03T05:18:52;100752.91;;;5.09;76.54
75298;BME280;63896;45.990;18.688;2023-04-03T05:21:57;100763.59;;;5.08;77.06
75298;BME280;63896;45.990;18.688;2023-04-03T05:25:01;100751.06;;;5.18;76.40
75298;BME280;63896;45.990;18.688;2023-04-03T05:28:04;100770.97;;;5.12;76.98
75298;BME280;63896;45.990;18.688;2023-04-03T05:31:07;100770.16;;;5.12;77.82
75298;BME280;63896;45.990;18.688;2023-04-03T05:34:11;100771.47;;;5.16;78.38
75298;BME280;63896;45.990;18.688;2023-04-03T05:37:15;100773.78;;;5.11;77.23
75298;BME280;63896;45.990;18.688;2023-04-03T05:40:18;100788.47;;;4.89;78.18
75298;BME280;63896;45.990;18.688;2023-04-03T05:43:25;100780.34;;;5.07;77.86
75298;BME280;63896;45.990;18.688;2023-04-03T05:46:29;100777.84;;;5.21;77.14
75298;BME280;63896;45.990;18.688;2023-04-03T05:49:37;100761.38;;;5.36;76.78
75298;BME280;63896;45.990;18.688;2023-04-03T05:52:47;100775.88;;;5.23;76.30
75298;BME280;63896;45.990;18.688;2023-04-03T05:55:51;100768.88;;;5.47;76.02
75298;BME280;63896;45.990;18.688;2023-04-03T05:58:54;100773.00;;;5.72;74.95
75298;BME280;63896;45.990;18.688;2023-04-03T06:01:58;100777.75;;;5.76;74.95
75298;BME280;63896;45.990;18.688;2023-04-03T06:05:01;100781.88;;;5.79;74.60
75298;BME280;63896;45.990;18.688;2023-04-03T06:08:05;100789.41;;;5.90;74.22
75298;BME280;63896;45.990;18.688;2023-04-03T06:11:08;100793.41;;;5.78;73.81
75298;BME280;63896;45.990;18.688;2023-04-03T06:14:11;100799.41;;;5.95;73.71
75298;BME280;63896;45.990;18.688;2023-04-03T06:17:16;100799.56;;;6.61;72.28
75298;BME280;63896;45.990;18.688;2023-04-03T06:20:20;100802.28;;;6.91;69.08
75298;BME280;63896;45.990;18.688;2023-04-03T06:23:24;100798.63;;;6.17;70.54
75298;BME280;63896;45.990;18.688;2023-04-03T06:26:28;100802.34;;;6.22;71.52
75298;BME280;63896;45.990;18.688;2023-04-03T06:29:31;100803.41;;;6.36;71.37
75298;BME280;63896;45.990;18.688;2023-04-03T06:32:35;100805.81;;;6.23;71.45
75298;BME280;63896;45.990;18.688;2023-04-03T06:35:38;100796.22;;;6.67;68.93
75298;BME280;63896;45.990;18.688;2023-04-03T06:38:42;100805.56;;;6.55;69.67
75298;BME280;63896;45.990;18.688;2023-04-03T06:41:45;100793.63;;;6.45;69.44
75298;BME280;63896;45.990;18.688;2023-04-03T06:44:48;100796.44;;;6.43;69.79
75298;BME280;63896;45.990;18.688;2023-04-03T06:47:54;100804.09;;;6.53;69.42
75298;BME280;63896;45.990;18.688;2023-04-03T06:50:57;100805.97;;;6.67;67.93
75298;BME280;63896;45.990;18.688;2023-04-03T06:54:02;100817.41;;;6.74;68.47
75298;BME280;63896;45.990;18.688;2023-04-03T06:57:05;100808.84;;;6.12;69.50
75298;BME280;63896;45.990;18.688;2023-04-03T07:00:10;100816.06;;;6.41;69.65
75298;BME280;63896;45.990;18.688;2023-04-03T07:03:14;100817.41;;;6.37;68.79
75298;BME280;63896;45.990;18.688;2023-04-03T07:06:18;100829.75;;;6.59;68.60
75298;BME280;63896;45.990;18.688;2023-04-03T07:09:22;100821.66;;;6.60;66.42
75298;BME280;63896;45.990;18.688;2023-04-03T07:12:25;100814.34;;;6.85;65.91
75298;BME280;63896;45.990;18.688;2023-04-03T07:15:29;100826.31;;;7.10;65.28
75298;BME280;63896;45.990;18.688;2023-04-03T07:18:33;100823.09;;;7.15;65.65
75298;BME280;63896;45.990;18.688;2023-04-03T07:21:36;100830.13;;;7.52;63.29
75298;BME280;63896;45.990;18.688;2023-04-03T07:24:40;100829.44;;;8.51;61.45
75298;BME280;63896;45.990;18.688;2023-04-03T07:27:43;100824.59;;;7.97;62.58
75298;BME280;63896;45.990;18.688;2023-04-03T07:30:48;100840.75;;;7.73;63.76
75298;BME280;63896;45.990;18.688;2023-04-03T07:33:51;100847.06;;;7.43;63.30
75298;BME280;63896;45.990;18.688;2023-04-03T07:36:54;100845.50;;;7.34;63.16
75298;BME280;63896;45.990;18.688;2023-04-03T07:39:57;100856.78;;;7.72;63.50
75298;BME280;63896;45.990;18.688;2023-04-03T07:43:01;100846.78;;;7.67;63.26
75298;BME280;63896;45.990;18.688;2023-04-03T07:46:04;100856.63;;;7.44;64.10
75298;BME280;63896;45.990;18.688;2023-04-03T07:49:08;100863.63;;;7.37;63.85
75298;BME280;63896;45.990;18.688;2023-04-03T07:52:11;100856.78;;;6.98;65.11
75298;BME280;63896;45.990;18.688;2023-04-03T07:55:15;100868.41;;;7.18;65.59
75298;BME280;63896;45.990;18.688;2023-04-03T07:58:18;100867.34;;;7.28;65.32
75298;BME280;63896;45.990;18.688;2023-04-03T08:01:21;100872.03;;;7.03;64.67
75298;BME280;63896;45.990;18.688;2023-04-03T08:04:29;100861.25;;;7.42;63.47
75298;BME280;63896;45.990;18.688;2023-04-03T08:07:33;100864.88;;;7.26;63.84
75298;BME280;63896;45.990;18.688;2023-04-03T08:10:36;100866.53;;;7.27;63.30
75298;BME280;63896;45.990;18.688;2023-04-03T08:13:39;100873.75;;;7.48;62.04
75298;BME280;63896;45.990;18.688;2023-04-03T08:16:45;100876.81;;;7.81;61.21
75298;BME280;63896;45.990;18.688;2023-04-03T08:19:49;100880.75;;;7.55;61.57
75298;BME280;63896;45.990;18.688;2023-04-03T08:22:53;100878.81;;;7.79;61.08
75298;BME280;63896;45.990;18.688;2023-04-03T08:25:56;100883.19;;;7.86;60.35
75298;BME280;63896;45.990;18.688;2023-04-03T08:29:01;100873.69;;;8.28;60.45
75298;BME280;63896;45.990;18.688;2023-04-03T08:32:05;100879.28;;;8.54;59.53
75298;BME280;63896;45.990;18.688;2023-04-03T08:35:09;100880.31;;;8.17;59.87
75298;BME280;63896;45.990;18.688;2023-04-03T08:38:12;100884.16;;;8.00;60.04
75298;BME280;63896;45.990;18.688;2023-04-03T08:41:41;100879.78;;;7.92;60.44
75298;BME280;63896;45.990;18.688;2023-04-03T08:48:42;100874.63;;;7.99;59.44
75298;BME280;63896;45.990;18.688;2023-04-03T08:51:48;100879.19;;;8.26;59.58
75298;BME280;63896;45.990;18.688;2023-04-03T08:54:57;100869.25;;;7.78;60.25
75298;BME280;63896;45.990;18.688;2023-04-03T09:03:37;100875.34;;;7.93;59.32
75298;BME280;63896;45.990;18.688;2023-04-03T09:06:50;100867.72;;;8.34;58.62
75298;BME280;63896;45.990;18.688;2023-04-03T09:09:55;100868.34;;;8.57;57.18
75298;BME280;63896;45.990;18.688;2023-04-03T09:16:20;100869.09;;;9.28;56.09
75298;BME280;63896;45.990;18.688;2023-04-03T09:22:43;100860.56;;;9.67;54.62
75298;BME280;63896;45.990;18.688;2023-04-03T09:26:01;100859.69;;;9.94;53.41
75298;BME280;63896;45.990;18.688;2023-04-03T09:29:08;100852.47;;;10.22;52.86
75298;BME280;63896;45.990;18.688;2023-04-03T09:35:31;100854.78;;;10.71;52.50
75298;BME280;63896;45.990;18.688;2023-04-03T09:39:07;100847.00;;;11.09;50.32
75298;BME280;63896;45.990;18.688;2023-04-03T09:42:21;100851.66;;;11.33;49.71
75298;BME280;63896;45.990;18.688;2023-04-03T09:45:33;100840.09;;;11.85;49.54
75298;BME280;63896;45.990;18.688;2023-04-03T09:48:50;100835.34;;;11.17;48.22
75298;BME280;63896;45.990;18.688;2023-04-03T09:52:35;100834.44;;;11.56;48.81
75298;BME280;63896;45.990;18.688;2023-04-03T09:55:43;100815.53;;;12.53;46.82
75298;BME280;63896;45.990;18.688;2023-04-03T10:02:43;100820.72;;;12.16;45.93
75298;BME280;63896;45.990;18.688;2023-04-03T10:05:46;100819.38;;;12.32;44.78
75298;BME280;63896;45.990;18.688;2023-04-03T10:09:15;100819.09;;;12.09;47.16
75298;BME280;63896;45.990;18.688;2023-04-03T10:12:19;100814.97;;;12.51;45.64
75298;BME280;63896;45.990;18.688;2023-04-03T10:15:22;100810.53;;;12.38;46.51
75298;BME280;63896;45.990;18.688;2023-04-03T10:21:55;100808.09;;;11.47;47.54
75298;BME280;63896;45.990;18.688;2023-04-03T10:25:18;100810.31;;;11.57;47.50
75298;BME280;63896;45.990;18.688;2023-04-03T10:39:38;100799.72;;;12.33;45.88
75298;BME280;63896;45.990;18.688;2023-04-03T10:46:55;100799.59;;;12.21;45.90
75298;BME280;63896;45.990;18.688;2023-04-03T10:50:36;100801.53;;;12.01;46.48
75298;BME280;63896;45.990;18.688;2023-04-03T10:57:24;100798.97;;;11.17;48.78
75298;BME280;63896;45.990;18.688;2023-04-03T11:00:47;100803.34;;;11.63;47.81
75298;BME280;63896;45.990;18.688;2023-04-03T11:03:56;100801.28;;;11.65;47.09
75298;BME280;63896;45.990;18.688;2023-04-03T11:07:15;100799.13;;;12.00;46.71
75298;BME280;63896;45.990;18.688;2023-04-03T11:16:53;100790.84;;;11.70;45.62
75298;BME280;63896;45.990;18.688;2023-04-03T11:20:18;100786.88;;;11.92;46.29
75298;BME280;63896;45.990;18.688;2023-04-03T11:23:30;100782.75;;;11.45;46.29
75298;BME280;63896;45.990;18.688;2023-04-03T11:26:52;100783.34;;;11.47;46.77
75298;BME280;63896;45.990;18.688;2023-04-03T11:29:59;100784.72;;;11.12;46.84
75298;BME280;63896;45.990;18.688;2023-04-03T11:36:58;100770.63;;;12.07;45.57
75298;BME280;63896;45.990;18.688;2023-04-03T11:40:07;100769.44;;;11.52;45.88
75298;BME280;63896;45.990;18.688;2023-04-03T11:43:43;100762.44;;;12.08;44.87
75298;BME280;63896;45.990;18.688;2023-04-03T11:47:00;100758.94;;;12.39;44.44
75298;BME280;63896;45.990;18.688;2023-04-03T11:50:04;100765.53;;;11.61;46.11
75298;BME280;63896;45.990;18.688;2023-04-03T11:59:25;100749.88;;;11.39;46.56
75298;BME280;63896;45.990;18.688;2023-04-03T12:02:37;100750.19;;;11.12;46.28
75298;BME280;63896;45.990;18.688;2023-04-03T12:05:43;100748.78;;;10.89;46.88
75298;BME280;63896;45.990;18.688;2023-04-03T12:08:49;100737.38;;;10.82;46.56
75298;BME280;63896;45.990;18.688;2023-04-03T12:11:55;100741.78;;;11.21;46.23
75298;BME280;63896;45.990;18.688;2023-04-03T12:24:52;100723.19;;;12.78;44.53
75298;BME280;63896;45.990;18.688;2023-04-03T12:27:55;100725.97;;;12.40;43.00
75298;BME280;63896;45.990;18.688;2023-04-03T12:31:01;100726.31;;;11.94;44.02
75298;BME280;63896;45.990;18.688;2023-04-03T12:41:37;100741.44;;;11.56;45.63
75298;BME280;63896;45.990;18.688;2023-04-03T12:44:49;100751.81;;;11.13;47.42
75298;BME280;63896;45.990;18.688;2023-04-03T12:47:56;100753.19;;;11.28;47.07
75298;BME280;63896;45.990;18.688;2023-04-03T12:50:59;100744.31;;;11.47;46.20
75298;BME280;63896;45.990;18.688;2023-04-03T12:54:22;100735.94;;;11.51;47.26
75298;BME280;63896;45.990;18.688;2023-04-03T12:57:27;100733.84;;;11.02;47.63
75298;BME280;63896;45.990;18.688;2023-04-03T13:03:38;100719.41;;;10.78;47.29
75298;BME280;63896;45.990;18.688;2023-04-03T13:06:43;100717.97;;;10.82;46.73
75298;BME280;63896;45.990;18.688;2023-04-03T13:09:59;100712.50;;;10.77;46.48
75298;BME280;63896;45.990;18.688;2023-04-03T13:13:14;100709.06;;;10.50;47.08
75298;BME280;63896;45.990;18.688;2023-04-03T13:16:18;100706.13;;;10.91;47.77
75298;BME280;63896;45.990;18.688;2023-04-03T13:19:23;100699.66;;;11.25;47.46
75298;BME280;63896;45.990;18.688;2023-04-03T13:22:36;100697.72;;;11.07;47.20
75298;BME280;63896;45.990;18.688;2023-04-03T13:25:43;100685.84;;;11.10;47.88
75298;BME280;63896;45.990;18.688;2023-04-03T13:28:48;100696.59;;;11.28;46.27
75298;BME280;63896;45.990;18.688;2023-04-03T13:31:56;100692.91;;;11.29;45.54
75298;BME280;63896;45.990;18.688;2023-04-03T13:35:00;100694.19;;;10.42;47.54
75298;BME280;63896;45.990;18.688;2023-04-03T13:38:24;100701.88;;;10.64;47.39
75298;BME280;63896;45.990;18.688;2023-04-03T13:41:37;100704.97;;;10.61;48.26
75298;BME280;63896;45.990;18.688;2023-04-03T13:44:40;100703.91;;;10.75;47.70
75298;BME280;63896;45.990;18.688;2023-04-03T13:47:45;100694.13;;;10.62;46.54
75298;BME280;63896;45.990;18.688;2023-04-03T13:54:21;100692.31;;;10.36;47.67
75298;BME280;63896;45.990;18.688;2023-04-03T13:57:25;100684.94;;;10.71;48.42
75298;BME280;63896;45.990;18.688;2023-04-03T14:04:10;100679.97;;;10.94;46.55
75298;BME280;63896;45.990;18.688;2023-04-03T14:07:05;100673.41;;;10.97;45.94
75298;BME280;63896;45.990;18.688;2023-04-03T14:10:09;100677.31;;;10.94;46.89
75298;BME280;63896;45.990;18.688;2023-04-03T14:13:14;100669.38;;;10.88;47.94
75298;BME280;63896;45.990;18.688;2023-04-03T14:16:23;100663.50;;;10.66;48.37
75298;BME280;63896;45.990;18.688;2023-04-03T14:19:33;100670.91;;;10.44;48.98
75298;BME280;63896;45.990;18.688;2023-04-03T14:22:37;100675.59;;;10.36;48.37
75298;BME280;63896;45.990;18.688;2023-04-03T14:25:40;100679.28;;;10.35;48.14
75298;BME280;63896;45.990;18.688;2023-04-03T14:28:51;100666.63;;;10.37;48.69
75298;BME280;63896;45.990;18.688;2023-04-03T14:31:54;100672.56;;;10.26;48.40
75298;BME280;63896;45.990;18.688;2023-04-03T14:35:09;100673.50;;;9.79;49.69
75298;BME280;63896;45.990;18.688;2023-04-03T14:38:21;100675.34;;;9.85;49.02
75298;BME280;63896;45.990;18.688;2023-04-03T14:41:25;100685.72;;;9.60;49.58
75298;BME280;63896;45.990;18.688;2023-04-03T14:44:29;100678.59;;;9.74;49.60
75298;BME280;63896;45.990;18.688;2023-04-03T14:47:48;100674.97;;;9.88;48.85
75298;BME280;63896;45.990;18.688;2023-04-03T14:50:52;100680.66;;;9.78;49.11
75298;BME280;63896;45.990;18.688;2023-04-03T14:54:14;100678.81;;;9.85;48.62
75298;BME280;63896;45.990;18.688;2023-04-03T14:57:17;100676.38;;;9.97;47.80
75298;BME280;63896;45.990;18.688;2023-04-03T15:00:21;100672.91;;;9.77;48.76
75298;BME280;63896;45.990;18.688;2023-04-03T15:03:24;100677.38;;;9.70;48.73
75298;BME280;63896;45.990;18.688;2023-04-03T15:06:35;100675.56;;;9.77;49.02
75298;BME280;63896;45.990;18.688;2023-04-03T15:09:38;100670.41;;;9.62;48.54
75298;BME280;63896;45.990;18.688;2023-04-03T15:12:42;100669.22;;;9.65;49.39
75298;BME280;63896;45.990;18.688;2023-04-03T15:15:45;100670.88;;;9.72;48.53
75298;BME280;63896;45.990;18.688;2023-04-03T15:18:49;100669.38;;;9.50;48.64
75298;BME280;63896;45.990;18.688;2023-04-03T15:21:52;100670.41;;;9.55;49.52
75298;BME280;63896;45.990;18.688;2023-04-03T15:24:54;100664.13;;;9.56;49.17
75298;BME280;63896;45.990;18.688;2023-04-03T15:27:58;100668.00;;;9.61;48.74
75298;BME280;63896;45.990;18.688;2023-04-03T15:31:01;100661.06;;;9.66;48.39
75298;BME280;63896;45.990;18.688;2023-04-03T15:34:04;100660.88;;;9.68;49.47
75298;BME280;63896;45.990;18.688;2023-04-03T15:37:06;100663.75;;;9.73;48.26
75298;BME280;63896;45.990;18.688;2023-04-03T15:40:10;100660.22;;;9.59;48.18
75298;BME280;63896;45.990;18.688;2023-04-03T15:43:14;100665.16;;;9.75;48.59
75298;BME280;63896;45.990;18.688;2023-04-03T15:46:17;100656.56;;;9.67;48.82
75298;BME280;63896;45.990;18.688;2023-04-03T15:49:20;100652.72;;;9.69;47.87
75298;BME280;63896;45.990;18.688;2023-04-03T15:52:24;100646.81;;;9.67;47.70
75298;BME280;63896;45.990;18.688;2023-04-03T15:55:33;100653.34;;;9.71;47.41
75298;BME280;63896;45.990;18.688;2023-04-03T15:58:37;100659.41;;;9.58;47.56
75298;BME280;63896;45.990;18.688;2023-04-03T16:01:41;100650.84;;;9.50;48.09
75298;BME280;63896;45.990;18.688;2023-04-03T16:04:44;100667.94;;;9.47;48.18
75298;BME280;63896;45.990;18.688;2023-04-03T16:07:47;100678.06;;;9.31;48.01
75298;BME280;63896;45.990;18.688;2023-04-03T16:10:50;100686.00;;;9.18;48.40
75298;BME280;63896;45.990;18.688;2023-04-03T16:13:54;100696.09;;;9.01;48.77
75298;BME280;63896;45.990;18.688;2023-04-03T16:16:58;100712.34;;;8.98;49.53
75298;BME280;63896;45.990;18.688;2023-04-03T16:20:03;100717.22;;;8.94;49.05
75298;BME280;63896;45.990;18.688;2023-04-03T16:23:07;100714.19;;;8.97;49.20
75298;BME280;63896;45.990;18.688;2023-04-03T16:26:09;100714.50;;;8.81;49.19
75298;BME280;63896;45.990;18.688;2023-04-03T16:29:12;100717.22;;;8.60;49.37
75298;BME280;63896;45.990;18.688;2023-04-03T16:32:15;100725.75;;;8.62;48.93
75298;BME280;63896;45.990;18.688;2023-04-03T16:35:18;100733.84;;;8.54;49.21
75298;BME280;63896;45.990;18.688;2023-04-03T16:38:21;100739.72;;;8.49;48.98
75298;BME280;63896;45.990;18.688;2023-04-03T16:41:24;100743.25;;;8.35;49.05
75298;BME280;63896;45.990;18.688;2023-04-03T16:44:27;100755.84;;;8.33;48.86
75298;BME280;63896;45.990;18.688;2023-04-03T16:47:30;100752.06;;;8.21;48.96
75298;BME280;63896;45.990;18.688;2023-04-03T16:50:33;100753.06;;;8.20;49.20
75298;BME280;63896;45.990;18.688;2023-04-03T16:53:36;100752.63;;;8.17;49.66
75298;BME280;63896;45.990;18.688;2023-04-03T16:56:39;100756.03;;;8.10;49.55
75298;BME280;63896;45.990;18.688;2023-04-03T16:59:42;100752.69;;;8.02;49.36
75298;BME280;63896;45.990;18.688;2023-04-03T17:02:45;100754.00;;;7.91;49.23
75298;BME280;63896;45.990;18.688;2023-04-03T17:05:48;100750.47;;;7.84;49.27
75298;BME280;63896;45.990;18.688;2023-04-03T17:08:52;100741.03;;;7.75;49.55
75298;BME280;63896;45.990;18.688;2023-04-03T17:12:03;100747.69;;;7.71;49.55
75298;BME280;63896;45.990;18.688;2023-04-03T17:15:07;100758.44;;;7.70;49.06
75298;BME280;63896;45.990;18.688;2023-04-03T17:18:10;100745.53;;;7.60;49.13
75298;BME280;63896;45.990;18.688;2023-04-03T17:21:13;100758.09;;;7.58;49.38
75298;BME280;63896;45.990;18.688;2023-04-03T17:24:17;100755.56;;;7.50;50.03
75298;BME280;63896;45.990;18.688;2023-04-03T17:27:20;100752.84;;;7.43;50.21
75298;BME280;63896;45.990;18.688;2023-04-03T17:30:23;100755.03;;;7.40;50.05
75298;BME280;63896;45.990;18.688;2023-04-03T17:33:28;100773.06;;;7.36;49.62
75298;BME280;63896;45.990;18.688;2023-04-03T17:36:33;100769.97;;;7.33;50.30
75298;BME280;63896;45.990;18.688;2023-04-03T17:39:36;100763.06;;;7.32;50.14
75298;BME280;63896;45.990;18.688;2023-04-03T17:42:39;100765.41;;;7.27;49.81
75298;BME280;63896;45.990;18.688;2023-04-03T17:45:42;100778.81;;;7.25;50.02